createdAt,value
2018-05-13T00:01:20.275Z,22.20
2018-05-13T00:04:25.461Z,22.10
2018-05-13T00:07:30.548Z,22.10
2018-05-13T00:10:36.673Z,22.10
2018-05-13T00:13:42.178Z,22.10
2018-05-13T00:16:46.631Z,22.10
2018-05-13T00:19:52.417Z,22.10
2018-05-13T00:22:57.634Z,22.20
2018-05-13T00:26:03.343Z,22.20
2018-05-13T00:29:08.579Z,22.20
2018-05-13T00:32:15.285Z,22.20
2018-05-13T00:35:20.681Z,22.20
2018-05-13T00:38:26.447Z,22.10
2018-05-13T00:41:32.935Z,22.10
2018-05-13T00:44:38.444Z,22.10
2018-05-13T00:47:43.236Z,22.10
2018-05-13T00:50:49.029Z,22.10
2018-05-13T00:53:55.361Z,22.10
2018-05-13T00:57:01.275Z,22.10
2018-05-13T01:00:06.358Z,22.10
2018-05-13T01:03:11.859Z,22.20
2018-05-13T01:06:17.371Z,22.20
2018-05-13T01:09:23.472Z,22.20
2018-05-13T01:12:29.028Z,22.20
2018-05-13T01:15:34.906Z,22.10
2018-05-13T01:18:42.083Z,22.10
2018-05-13T01:21:47.869Z,22.10
2018-05-13T01:24:53.705Z,22.10
2018-05-13T01:28:00.455Z,22.10
2018-05-13T01:31:06.796Z,22.10
2018-05-13T01:34:11.979Z,22.20
2018-05-13T01:37:18.216Z,22.20
2018-05-13T01:40:25.389Z,22.20
2018-05-13T01:43:31.517Z,22.20
2018-05-13T01:46:36.295Z,22.20
2018-05-13T01:49:42.937Z,22.20
2018-05-13T01:52:48.510Z,22.20
2018-05-13T01:55:53.728Z,22.10
2018-05-13T01:58:59.436Z,22.10
2018-05-13T02:02:05.148Z,22.10
2018-05-13T02:05:11.059Z,22.20
2018-05-13T02:08:16.357Z,22.20
2018-05-13T02:11:20.818Z,22.30
2018-05-13T02:14:26.522Z,22.20
2018-05-13T02:17:34.317Z,22.20
2018-05-13T02:20:40.871Z,22.20
2018-05-13T02:23:47.551Z,22.20
2018-05-13T02:26:53.766Z,22.10
2018-05-13T02:29:59.815Z,22.20
2018-05-13T02:33:05.791Z,22.10
2018-05-13T02:36:11.818Z,22.10
2018-05-13T02:39:18.666Z,22.10
2018-05-13T02:42:24.602Z,22.20
2018-05-13T02:45:30.738Z,22.20
2018-05-13T02:48:37.191Z,22.20
2018-05-13T02:51:42.770Z,22.20
2018-05-13T02:54:47.646Z,22.20
2018-05-13T02:57:53.143Z,22.20
2018-05-13T03:00:58.344Z,22.10
2018-05-13T03:04:04.458Z,22.10
2018-05-13T03:07:09.626Z,22.10
2018-05-13T03:10:14.731Z,22.10
2018-05-13T03:13:19.811Z,22.20
2018-05-13T03:16:25.024Z,22.20
2018-05-13T03:19:29.891Z,22.30
2018-05-13T03:22:35.272Z,22.20
2018-05-13T03:25:40.563Z,22.20
2018-05-13T03:28:47.133Z,22.20
2018-05-13T03:31:52.304Z,22.20
2018-05-13T03:34:57.693Z,22.20
2018-05-13T03:38:02.268Z,22.20
2018-05-13T03:41:07.815Z,22.20
2018-05-13T03:44:13.098Z,22.20
2018-05-13T03:47:19.070Z,22.20
2018-05-13T03:50:24.486Z,22.30
2018-05-13T03:53:30.068Z,22.30
2018-05-13T03:56:35.357Z,22.30
2018-05-13T03:59:41.068Z,22.20
2018-05-13T04:02:46.362Z,22.20
2018-05-13T04:05:51.232Z,22.20
2018-05-13T04:09:11.988Z,22.20
2018-05-13T04:12:29.612Z,22.20
2018-05-13T04:15:43.160Z,22.20
2018-05-13T04:18:48.130Z,22.20
2018-05-13T04:21:53.902Z,22.20
2018-05-13T04:24:58.828Z,22.30
2018-05-13T04:28:05.042Z,22.30
2018-05-13T04:31:10.130Z,22.30
2018-05-13T04:34:16.466Z,22.30
2018-05-13T04:37:22.176Z,22.30
2018-05-13T04:40:27.884Z,22.20
2018-05-13T04:43:33.502Z,22.30
2018-05-13T04:46:38.721Z,22.20
2018-05-13T04:49:43.759Z,22.20
2018-05-13T04:52:49.051Z,22.30
2018-05-13T04:55:54.681Z,22.30
2018-05-13T04:58:59.961Z,22.40
2018-05-13T05:02:05.027Z,22.40
2018-05-13T05:05:10.636Z,22.40
2018-05-13T05:08:15.930Z,22.40
2018-05-13T05:11:21.569Z,22.30
2018-05-13T05:14:26.684Z,22.30
2018-05-13T05:17:31.803Z,22.30
2018-05-13T05:20:36.891Z,22.20
2018-05-13T05:23:42.379Z,22.30
2018-05-13T05:26:48.200Z,22.30
2018-05-13T05:29:53.699Z,22.30
2018-05-13T05:32:58.895Z,22.40
2018-05-13T05:36:03.863Z,22.40
2018-05-13T05:39:09.159Z,22.40
2018-05-13T05:42:14.766Z,22.30
2018-05-13T05:45:20.475Z,22.30
2018-05-13T05:48:26.478Z,22.30
2018-05-13T05:51:31.224Z,22.20
2018-05-13T05:54:36.673Z,22.30
2018-05-13T05:57:43.320Z,22.30
2018-05-13T06:00:48.603Z,22.30
2018-05-13T06:03:54.107Z,22.40
2018-05-13T06:07:01.161Z,22.30
2018-05-13T06:10:06.904Z,22.40
2018-05-13T06:13:12.227Z,22.30
2018-05-13T06:16:18.831Z,22.30
2018-05-13T06:19:24.923Z,22.30
2018-05-13T06:22:31.500Z,22.30
2018-05-13T06:25:36.916Z,22.30
2018-05-13T06:28:43.546Z,22.30
2018-05-13T06:31:48.009Z,22.40
2018-05-13T06:34:52.673Z,22.40
2018-05-13T06:37:58.896Z,22.40
2018-05-13T06:41:05.337Z,22.30
2018-05-13T06:44:10.627Z,22.30
2018-05-13T06:47:15.521Z,22.30
2018-05-13T06:50:20.793Z,22.20
2018-05-13T06:53:25.879Z,22.30
2018-05-13T06:56:31.279Z,22.20
2018-05-13T06:59:36.464Z,22.30
2018-05-13T07:02:41.609Z,22.30
2018-05-13T07:05:47.341Z,22.40
2018-05-13T07:08:52.709Z,22.40
2018-05-13T07:11:58.369Z,22.40
2018-05-13T07:15:04.388Z,22.40
2018-05-13T07:18:09.888Z,22.40
2018-05-13T07:21:15.178Z,22.30
2018-05-13T07:24:20.053Z,22.30
2018-05-13T07:27:25.445Z,22.30
2018-05-13T07:30:30.966Z,22.30
2018-05-13T07:33:35.932Z,22.20
2018-05-13T07:36:40.591Z,22.30
2018-05-13T07:39:46.355Z,22.30
2018-05-13T07:42:53.158Z,22.30
2018-05-13T07:45:58.572Z,22.40
2018-05-13T07:49:04.070Z,22.40
2018-05-13T07:52:09.768Z,22.30
2018-05-13T07:55:15.483Z,22.40
2018-05-13T07:58:21.192Z,22.30
2018-05-13T08:01:26.277Z,22.30
2018-05-13T08:04:32.399Z,22.30
2018-05-13T08:07:38.734Z,22.20
2018-05-13T08:10:44.447Z,22.30
2018-05-13T08:13:49.526Z,22.30
2018-05-13T08:16:55.968Z,22.30
2018-05-13T08:20:02.347Z,22.30
2018-05-13T08:23:07.729Z,22.30
2018-05-13T08:26:12.998Z,22.40
2018-05-13T08:29:18.980Z,22.40
2018-05-13T08:32:25.037Z,22.40
2018-05-13T08:35:30.444Z,22.30
2018-05-13T08:38:35.529Z,22.30
2018-05-13T08:41:41.330Z,22.30
2018-05-13T08:44:47.045Z,22.20
2018-05-13T08:47:52.242Z,22.30
2018-05-13T08:50:57.623Z,22.30
2018-05-13T08:54:02.885Z,22.40
2018-05-13T08:57:08.774Z,22.40
2018-05-13T09:00:15.800Z,22.40
2018-05-13T09:03:22.204Z,22.30
2018-05-13T09:06:27.024Z,22.30
2018-05-13T09:09:32.514Z,22.30
2018-05-13T09:12:37.750Z,22.30
2018-05-13T09:15:43.100Z,22.30
2018-05-13T09:18:47.969Z,22.20
2018-05-13T09:21:54.516Z,22.30
2018-05-13T09:25:00.480Z,22.30
2018-05-13T09:28:06.680Z,22.40
2018-05-13T09:31:11.642Z,22.40
2018-05-13T09:34:18.545Z,22.40
2018-05-13T09:37:24.107Z,22.30
2018-05-13T09:40:30.856Z,22.30
2018-05-13T09:43:37.091Z,22.30
2018-05-13T09:46:42.918Z,22.30
2018-05-13T09:49:48.981Z,22.30
2018-05-13T09:52:54.325Z,22.40
2018-05-13T09:55:59.010Z,22.40
2018-05-13T09:59:04.139Z,22.40
2018-05-13T10:02:10.195Z,22.40
2018-05-13T10:05:15.403Z,22.30
2018-05-13T10:08:20.366Z,22.30
2018-05-13T10:11:27.318Z,22.30
2018-05-13T10:14:32.655Z,22.20
2018-05-13T10:17:37.704Z,22.30
2018-05-13T10:20:42.900Z,22.30
2018-05-13T10:23:47.364Z,22.40
2018-05-13T10:26:52.231Z,22.40
2018-05-13T10:29:57.121Z,22.40
2018-05-13T10:33:03.752Z,22.30
2018-05-13T10:36:09.362Z,22.30
2018-05-13T10:39:14.956Z,22.30
2018-05-13T10:42:19.621Z,22.20
2018-05-13T10:45:24.296Z,22.30
2018-05-13T10:48:34.085Z,22.30
2018-05-13T10:51:41.556Z,22.30
2018-05-13T10:54:46.020Z,22.30
2018-05-13T10:57:51.830Z,22.40
2018-05-13T11:00:57.012Z,22.40
2018-05-13T11:04:02.938Z,22.30
2018-05-13T11:07:08.714Z,22.30
2018-05-13T11:10:14.471Z,22.30
2018-05-13T11:13:19.541Z,22.30
2018-05-13T11:16:24.720Z,22.30
2018-05-13T11:19:29.504Z,22.30
2018-05-13T11:22:36.240Z,22.40
2018-05-13T11:25:41.856Z,22.30
2018-05-13T11:28:47.235Z,22.40
2018-05-13T11:31:51.354Z,22.40
2018-05-13T11:34:56.024Z,22.40
2018-05-13T11:38:01.562Z,22.40
2018-05-13T11:41:07.690Z,22.40
2018-05-13T11:44:12.412Z,22.30
2018-05-13T11:47:18.176Z,22.30
2018-05-13T11:50:24.192Z,22.30
2018-05-13T11:53:29.482Z,22.40
2018-05-13T11:56:35.166Z,22.30
2018-05-13T11:59:41.320Z,22.40
2018-05-13T12:02:46.822Z,22.40
2018-05-13T12:05:51.916Z,22.40
2018-05-13T12:08:57.680Z,22.30
2018-05-13T12:12:02.711Z,22.30
2018-05-13T12:15:10.363Z,22.30
2018-05-13T12:18:15.795Z,22.30
2018-05-13T12:21:22.228Z,22.30
2018-05-13T12:24:27.933Z,22.30
2018-05-13T12:27:33.488Z,22.40
2018-05-13T12:30:39.664Z,22.40
2018-05-13T12:33:44.302Z,22.40
2018-05-13T12:36:49.905Z,22.40
2018-05-13T12:39:55.753Z,22.40
2018-05-13T12:43:01.254Z,22.40
2018-05-13T12:46:06.966Z,22.40
2018-05-13T12:49:11.815Z,22.40
2018-05-13T12:52:17.454Z,22.30
2018-05-13T12:55:24.096Z,22.40
2018-05-13T12:58:29.359Z,22.50
2018-05-13T13:01:34.887Z,22.40
2018-05-13T13:04:40.294Z,22.40
2018-05-13T13:07:45.323Z,22.50
2018-05-13T13:10:50.549Z,22.40
2018-05-13T13:13:55.528Z,22.40
2018-05-13T13:17:01.681Z,22.40
2018-05-13T13:20:06.739Z,22.40
2018-05-13T13:23:11.304Z,22.40
2018-05-13T13:26:16.872Z,22.50
2018-05-13T13:29:22.203Z,22.40
2018-05-13T13:32:28.078Z,22.50
2018-05-13T13:35:33.140Z,22.50
2018-05-13T13:38:38.808Z,22.50
2018-05-13T13:41:46.812Z,22.40
2018-05-13T13:44:52.104Z,22.40
2018-05-13T13:47:57.086Z,22.40
2018-05-13T13:51:02.395Z,22.40
2018-05-13T13:54:07.980Z,22.30
2018-05-13T13:57:14.318Z,22.40
2018-05-13T14:00:19.621Z,22.40
2018-05-13T14:03:24.630Z,22.40
2018-05-13T14:06:29.653Z,22.40
2018-05-13T14:09:36.096Z,22.40
2018-05-13T14:12:41.711Z,22.40
2018-05-13T14:15:46.692Z,22.30
2018-05-13T14:18:53.028Z,22.30
2018-05-13T14:21:59.738Z,22.40
2018-05-13T14:25:04.865Z,22.40
2018-05-13T14:28:11.424Z,22.40
2018-05-13T14:31:15.662Z,22.40
2018-05-13T14:34:21.998Z,22.40
2018-05-13T14:37:27.979Z,22.40
2018-05-13T14:40:42.207Z,22.40
2018-05-13T14:43:47.899Z,22.40
2018-05-13T14:46:53.612Z,22.30
2018-05-13T14:49:59.113Z,22.30
2018-05-13T14:53:04.726Z,22.30
2018-05-13T14:56:09.807Z,22.30
2018-05-13T14:59:14.788Z,22.40
2018-05-13T15:02:21.428Z,22.40
2018-05-13T15:05:26.409Z,22.40
2018-05-13T15:08:31.656Z,22.40
2018-05-13T15:11:37.306Z,22.30
2018-05-13T15:14:43.326Z,22.40
2018-05-13T15:17:48.412Z,22.30
2018-05-13T15:20:53.913Z,22.30
2018-05-13T15:24:00.104Z,22.40
2018-05-13T15:27:07.626Z,22.40
2018-05-13T15:30:13.336Z,22.40
2018-05-13T15:33:19.051Z,22.40
2018-05-13T15:36:24.550Z,22.40
2018-05-13T15:39:31.308Z,22.40
2018-05-13T15:42:37.031Z,22.30
2018-05-13T15:45:41.890Z,22.30
2018-05-13T15:48:47.110Z,22.30
2018-05-13T15:51:51.845Z,22.30
2018-05-13T15:54:57.703Z,22.30
2018-05-13T15:58:02.644Z,22.30
2018-05-13T16:01:08.136Z,22.40
2018-05-13T16:04:14.270Z,22.40
2018-05-13T16:07:22.069Z,22.30
2018-05-13T16:10:27.152Z,22.30
2018-05-13T16:13:32.334Z,22.30
2018-05-13T16:16:37.834Z,22.30
2018-05-13T16:19:44.650Z,22.30
2018-05-13T16:22:49.986Z,22.30
2018-05-13T16:25:55.692Z,22.30
2018-05-13T16:29:00.756Z,22.30
2018-05-13T16:32:06.408Z,22.40
2018-05-13T16:35:12.202Z,22.30
2018-05-13T16:38:17.602Z,22.30
2018-05-13T16:41:23.467Z,22.30
2018-05-13T16:44:29.749Z,22.30
2018-05-13T16:47:35.142Z,22.30
2018-05-13T16:50:40.122Z,22.30
2018-05-13T16:53:44.574Z,22.30
2018-05-13T16:56:49.588Z,22.30
2018-05-13T16:59:54.667Z,22.30
2018-05-13T17:03:00.035Z,22.30
2018-05-13T17:06:05.072Z,22.40
2018-05-13T17:09:10.982Z,22.40
2018-05-13T17:12:16.484Z,22.30
2018-05-13T17:15:23.500Z,22.30
2018-05-13T17:18:28.498Z,22.30
2018-05-13T17:21:34.290Z,22.20
2018-05-13T17:24:39.587Z,22.30
2018-05-13T17:27:45.895Z,22.30
2018-05-13T17:30:51.632Z,22.30
2018-05-13T17:33:55.990Z,22.40
2018-05-13T17:37:00.758Z,22.40
2018-05-13T17:40:06.878Z,22.30
2018-05-13T17:43:12.381Z,22.30
2018-05-13T17:46:16.582Z,22.30
2018-05-13T17:49:22.550Z,22.30
2018-05-13T17:52:27.442Z,22.30
2018-05-13T17:55:32.500Z,22.30
2018-05-13T17:58:38.214Z,22.30
2018-05-13T18:01:43.425Z,22.40
2018-05-13T18:04:48.698Z,22.40
2018-05-13T18:07:53.810Z,22.40
2018-05-13T18:11:00.007Z,22.30
2018-05-13T18:14:06.344Z,22.30
2018-05-13T18:17:12.262Z,22.30
2018-05-13T18:20:17.555Z,22.30
2018-05-13T18:23:23.472Z,22.30
2018-05-13T18:26:28.976Z,22.30
2018-05-13T18:29:34.632Z,22.30
2018-05-13T18:32:40.601Z,22.40
2018-05-13T18:35:45.890Z,22.40
2018-05-13T18:38:52.760Z,22.30
2018-05-13T18:41:57.941Z,22.30
2018-05-13T18:45:03.760Z,22.30
2018-05-13T18:48:09.986Z,22.30
2018-05-13T18:51:15.178Z,22.30
2018-05-13T18:54:20.568Z,22.30
2018-05-13T18:57:27.317Z,22.30
2018-05-13T19:00:32.613Z,22.30
2018-05-13T19:03:37.288Z,22.40
2018-05-13T19:06:41.950Z,22.40
2018-05-13T19:09:46.517Z,22.40
2018-05-13T19:12:51.033Z,22.30
2018-05-13T19:15:56.151Z,22.30
2018-05-13T19:19:01.240Z,22.30
2018-05-13T19:22:05.898Z,22.30
2018-05-13T19:25:11.191Z,22.30
2018-05-13T19:28:17.212Z,22.30
2018-05-13T19:31:22.313Z,22.30
2018-05-13T19:34:28.004Z,22.30
2018-05-13T19:37:35.152Z,22.30
2018-05-13T19:40:39.946Z,22.30
2018-05-13T19:43:47.430Z,22.30
2018-05-13T19:46:52.655Z,22.30
2018-05-13T19:49:58.329Z,22.30
2018-05-13T19:53:04.668Z,22.20
2018-05-13T19:56:11.212Z,22.30
2018-05-13T19:59:16.918Z,22.20
2018-05-13T20:02:22.420Z,22.30
2018-05-13T20:05:27.920Z,22.30
2018-05-13T20:08:35.094Z,22.30
2018-05-13T20:11:43.284Z,22.30
2018-05-13T20:14:49.870Z,22.40
2018-05-13T20:17:56.466Z,22.30
2018-05-13T20:21:02.113Z,22.30
2018-05-13T20:24:09.388Z,22.30
2018-05-13T20:27:13.911Z,22.30
2018-05-13T20:30:19.656Z,22.30
2018-05-13T20:33:24.951Z,22.30
2018-05-13T20:36:29.824Z,22.40
2018-05-13T20:39:36.575Z,22.40
2018-05-13T20:42:41.449Z,22.40
2018-05-13T20:45:46.534Z,22.40
2018-05-13T20:48:52.349Z,22.30
2018-05-13T20:51:59.733Z,22.30
2018-05-13T20:55:03.873Z,22.20
2018-05-13T20:58:08.859Z,22.30
2018-05-13T21:01:14.248Z,22.30
2018-05-13T21:04:19.955Z,22.30
2018-05-13T21:07:24.837Z,22.30
2018-05-13T21:10:29.497Z,22.40
2018-05-13T21:13:34.789Z,22.40
2018-05-13T21:16:41.549Z,22.40
2018-05-13T21:19:48.295Z,22.40
2018-05-13T21:22:53.743Z,22.30
2018-05-13T21:26:00.449Z,22.30
2018-05-13T21:29:06.469Z,22.30
2018-05-13T21:32:11.443Z,22.30
2018-05-13T21:35:16.950Z,22.30
2018-05-13T21:38:22.162Z,22.40
2018-05-13T21:41:27.321Z,22.40
2018-05-13T21:44:32.718Z,22.50
2018-05-13T21:47:37.271Z,22.50
2018-05-13T21:50:43.720Z,22.40
2018-05-13T21:53:49.754Z,22.40
2018-05-13T21:56:54.534Z,22.40
2018-05-13T22:00:00.009Z,22.30
2018-05-13T22:03:05.209Z,22.40
2018-05-13T22:06:10.129Z,22.20
2018-05-13T22:09:15.471Z,21.80
2018-05-13T22:12:22.171Z,21.30
2018-05-13T22:15:27.946Z,21.30
2018-05-13T22:18:33.022Z,21.10
2018-05-13T22:21:37.472Z,20.90
2018-05-13T22:24:43.283Z,20.80
2018-05-13T22:27:48.650Z,20.60
2018-05-13T22:30:55.236Z,20.50
2018-05-13T22:34:00.942Z,20.30
2018-05-13T22:37:06.026Z,20.30
2018-05-13T22:40:10.025Z,20.20
2018-05-13T22:43:15.571Z,20.10
2018-05-13T22:46:22.109Z,19.90
2018-05-13T22:49:31.787Z,19.90
2018-05-13T22:52:36.772Z,20.00
2018-05-13T22:55:42.580Z,19.90
2018-05-13T22:58:48.575Z,19.90
2018-05-13T23:01:54.209Z,19.80
2018-05-13T23:04:58.881Z,19.70
2018-05-13T23:08:04.478Z,19.60
2018-05-13T23:11:08.948Z,19.60
2018-05-13T23:14:14.958Z,19.60
2018-05-13T23:17:19.417Z,19.50
2018-05-13T23:20:25.334Z,19.60
2018-05-13T23:23:30.101Z,19.50
2018-05-13T23:26:36.543Z,19.50
2018-05-13T23:29:42.261Z,19.40
2018-05-13T23:32:47.961Z,19.40
2018-05-13T23:35:54.418Z,19.40
2018-05-13T23:39:01.426Z,19.40
2018-05-13T23:42:06.760Z,19.40
2018-05-13T23:45:11.827Z,19.30
2018-05-13T23:48:17.962Z,19.30
2018-05-13T23:51:23.978Z,19.20
2018-05-13T23:54:29.280Z,19.10
2018-05-13T23:57:35.316Z,19.20
